This is the latest recevied weather packets stored in our database for station/object S57ZT-10. If no packets are shown the sender has not sent any weather packets the latest 1 day(s).
| Time | Temp. | Humidity | Pressure | Rain* | Wind** | Luminosity | Snow |
|---|---|---|---|---|---|---|---|
| 1778096936 | 20° C | 45% | 1012.4 hPa | - | - | - | - |
| 1778095138 | 20.56° C | 45% | 1012.1 hPa | - | - | - | - |
| 1778090638 | 21.11° C | 44% | 1011.6 hPa | - | - | - | - |
| 1778088836 | 21.11° C | 45% | 1011.5 hPa | - | - | - | - |
| 1778087938 | 21.67° C | 44% | 1011.5 hPa | - | - | - | - |
| 1778086161 | 21.67° C | 44% | 1011.6 hPa | - | - | - | - |
| 1778083461 | 22.22° C | 44% | 1012.2 hPa | - | - | - | - |
| 1778079840 | 23.33° C | 42% | 1012.2 hPa | - | - | - | - |
| 1778078026 | 22.78° C | 43% | 1012.3 hPa | - | - | - | - |
| 1778072640 | 24.44° C | 37% | 1012.5 hPa | - | - | - | - |
| 1778071739 | 24.44° C | 39% | 1012.4 hPa | - | - | - | - |
| 1778066320 | 25° C | 37% | 1012.8 hPa | - | - | - | - |
| 1778065420 | 23.89° C | 39% | 1013 hPa | - | - | - | - |
| 1778064560 | 23.89° C | 39% | 1013.2 hPa | - | - | - | - |
| 1778063636 | 23.89° C | 38% | 1013.6 hPa | - | - | - | - |
| 1778062760 | 23.89° C | 38% | 1013.5 hPa | - | - | - | - |
| 1778060069 | 23.33° C | 40% | 1013.5 hPa | - | - | - | - |
| 1778059122 | 23.33° C | 40% | 1013.6 hPa | - | - | - | - |
| 1778054620 | 25° C | 35% | 1013.2 hPa | - | - | - | - |
| 1778053741 | 24.44° C | 34% | 1012.8 hPa | - | - | - | - |
| 1778051919 | 23.89° C | 35% | 1012.6 hPa | - | - | - | - |
| 1778051038 | 23.89° C | 39% | 1012.6 hPa | - | - | - | - |
| 1778049237 | 22.22° C | 44% | 1012.8 hPa | - | - | - | - |
| 1778048318 | 21.67° C | 44% | 1012.8 hPa | - | - | - | - |
| 1778047418 | 21.11° C | 44% | 1012.8 hPa | - | - | - | - |
* Rain since midnight (hover to see other rain measurements)
** Current wind speed in m/s (hover to see current wind gust speed)